createdAt,value
2019-06-20T00:01:58.689Z,9.65
2019-06-20T00:04:25.249Z,9.45
2019-06-20T00:06:52.418Z,10.48
2019-06-20T00:09:20.197Z,9.98
2019-06-20T00:11:46.888Z,10.43
2019-06-20T00:14:13.558Z,10.03
2019-06-20T00:16:41.690Z,9.85
2019-06-20T00:19:08.279Z,10.43
2019-06-20T00:21:35.185Z,10.05
2019-06-20T00:24:01.957Z,10.28
2019-06-20T00:26:28.702Z,11.12
2019-06-20T00:28:55.311Z,10.60
2019-06-20T00:31:22.181Z,10.28
2019-06-20T00:33:48.833Z,9.95
2019-06-20T00:36:15.801Z,9.60
2019-06-20T00:38:42.377Z,9.68
2019-06-20T00:41:09.301Z,10.38
2019-06-20T00:43:35.977Z,9.88
2019-06-20T00:46:02.651Z,9.98
2019-06-20T00:48:29.256Z,9.50
2019-06-20T00:50:55.897Z,10.05
2019-06-20T00:53:22.704Z,8.65
2019-06-20T00:55:49.394Z,9.65
2019-06-20T00:58:15.966Z,8.75
2019-06-20T01:00:42.729Z,7.53
2019-06-20T01:03:09.755Z,8.10
2019-06-20T01:05:36.334Z,9.25
2019-06-20T01:08:02.942Z,8.75
2019-06-20T01:10:29.517Z,8.23
2019-06-20T01:12:56.187Z,8.85
2019-06-20T01:15:23.166Z,9.05
2019-06-20T01:17:49.843Z,8.75
2019-06-20T01:20:16.801Z,11.03
2019-06-20T01:22:43.638Z,10.25
2019-06-20T01:25:13.365Z,11.65
2019-06-20T01:27:39.967Z,13.65
2019-06-20T01:30:07.731Z,13.32
2019-06-20T01:32:34.299Z,13.10
2019-06-20T01:35:01.097Z,12.78
2019-06-20T01:37:27.812Z,12.68
2019-06-20T01:39:54.430Z,13.68
2019-06-20T01:42:22.028Z,15.32
2019-06-20T01:44:48.938Z,15.48
2019-06-20T01:47:15.642Z,16.60
2019-06-20T01:49:42.345Z,16.07
2019-06-20T01:52:08.927Z,18.32
2019-06-20T01:54:35.530Z,17.00
2019-06-20T01:57:03.151Z,17.20
2019-06-20T01:59:29.825Z,17.05
2019-06-20T02:01:56.617Z,18.65
2019-06-20T02:04:23.183Z,17.85
2019-06-20T02:06:50.108Z,21.30
2019-06-20T02:09:17.082Z,16.30
2019-06-20T02:11:43.648Z,15.10
2019-06-20T02:14:10.353Z,16.50
2019-06-20T02:16:36.983Z,16.82
2019-06-20T02:19:04.880Z,18.02
2019-06-20T02:21:31.728Z,19.48
2019-06-20T02:23:58.311Z,19.17
2019-06-20T02:26:25.234Z,19.80
2019-06-20T02:28:51.802Z,20.82
2019-06-20T02:31:18.412Z,18.00
2019-06-20T02:33:45.010Z,18.05
2019-06-20T02:36:11.612Z,19.27
2019-06-20T02:38:38.405Z,20.75
2019-06-20T02:41:05.105Z,22.20
2019-06-20T02:43:31.774Z,19.85
2019-06-20T02:45:58.769Z,17.80
2019-06-20T02:48:25.654Z,22.52
2019-06-20T02:50:52.226Z,20.60
2019-06-20T02:53:18.882Z,20.92
2019-06-20T02:55:45.558Z,24.02
2019-06-20T02:58:12.211Z,22.55
2019-06-20T03:01:02.767Z,20.75
2019-06-20T03:03:29.461Z,22.25
2019-06-20T03:05:56.279Z,20.80
2019-06-20T03:08:23.159Z,19.98
2019-06-20T03:10:53.894Z,23.07
2019-06-20T03:13:20.458Z,22.10
2019-06-20T03:15:49.966Z,19.85
2019-06-20T03:18:15.697Z,17.42
2019-06-20T03:20:42.497Z,16.87
2019-06-20T03:23:09.296Z,14.98
2019-06-20T03:25:36.006Z,17.20
2019-06-20T03:28:02.709Z,14.00
2019-06-20T03:30:29.510Z,12.50
2019-06-20T03:32:56.533Z,12.53
2019-06-20T03:35:23.222Z,11.50
2019-06-20T03:37:50.400Z,11.20
2019-06-20T03:40:18.327Z,11.05
2019-06-20T03:42:47.742Z,10.40
2019-06-20T03:45:15.294Z,9.25
2019-06-20T03:47:42.913Z,9.95
2019-06-20T03:50:09.601Z,9.58
2019-06-20T03:52:36.200Z,9.33
2019-06-20T03:55:03.389Z,9.05
2019-06-20T03:57:29.979Z,9.98
2019-06-20T03:59:56.627Z,8.88
2019-06-20T04:02:23.163Z,9.15
2019-06-20T04:04:51.043Z,9.33
2019-06-20T04:07:17.638Z,10.53
2019-06-20T04:09:44.221Z,9.20
2019-06-20T04:12:10.842Z,10.57
2019-06-20T04:14:39.043Z,9.75
2019-06-20T04:17:05.641Z,10.30
2019-06-20T04:19:32.266Z,11.00
2019-06-20T04:21:58.833Z,10.32
2019-06-20T04:24:27.873Z,10.53
2019-06-20T04:26:54.309Z,10.68
2019-06-20T04:29:20.916Z,10.18
2019-06-20T04:31:47.552Z,10.10
2019-06-20T04:34:14.111Z,11.03
2019-06-20T04:36:43.297Z,10.98
2019-06-20T04:39:19.348Z,11.73
2019-06-20T04:41:39.457Z,10.75
2019-06-20T04:44:05.995Z,11.22
2019-06-20T04:46:44.671Z,10.88
2019-06-20T04:49:11.255Z,12.28
2019-06-20T04:51:37.907Z,12.37
2019-06-20T04:54:06.173Z,11.45
2019-06-20T04:56:33.025Z,10.80
2019-06-20T04:59:00.076Z,10.28
2019-06-20T05:01:26.795Z,11.57
2019-06-20T05:03:53.449Z,11.18
2019-06-20T05:06:20.118Z,10.48
2019-06-20T05:08:46.758Z,10.95
2019-06-20T05:11:14.091Z,12.15
2019-06-20T05:13:40.816Z,10.18
2019-06-20T05:16:07.426Z,9.98
2019-06-20T05:18:33.997Z,9.63
2019-06-20T05:21:00.617Z,10.00
2019-06-20T05:23:27.258Z,10.18
2019-06-20T05:25:54.009Z,10.08
2019-06-20T05:28:20.828Z,10.00
2019-06-20T05:30:47.630Z,10.10
2019-06-20T05:33:14.894Z,9.10
2019-06-20T05:35:41.541Z,9.93
2019-06-20T05:38:08.303Z,10.08
2019-06-20T05:40:37.217Z,10.13
2019-06-20T05:43:04.645Z,11.00
2019-06-20T05:45:31.311Z,9.53
2019-06-20T05:47:57.931Z,9.78
2019-06-20T05:50:24.852Z,9.85
2019-06-20T05:52:52.910Z,9.18
2019-06-20T05:55:19.762Z,9.98
2019-06-20T05:57:46.615Z,9.88
2019-06-20T06:00:13.451Z,11.45
2019-06-20T06:02:43.077Z,10.80
2019-06-20T06:05:09.883Z,13.08
2019-06-20T06:07:36.563Z,15.30
2019-06-20T06:10:05.565Z,14.60
2019-06-20T06:12:33.433Z,15.80
2019-06-20T06:15:00.956Z,15.18
2019-06-20T06:17:27.716Z,13.88
2019-06-20T06:19:54.308Z,14.98
2019-06-20T06:22:20.879Z,13.90
2019-06-20T06:24:47.503Z,14.20
2019-06-20T06:27:14.063Z,14.13
2019-06-20T06:29:40.881Z,14.60
2019-06-20T06:32:07.561Z,14.40
2019-06-20T06:34:34.324Z,16.45
2019-06-20T06:37:01.595Z,14.85
2019-06-20T06:39:28.206Z,16.85
2019-06-20T06:41:54.795Z,16.97
2019-06-20T06:44:21.406Z,17.27
2019-06-20T06:46:54.146Z,18.50
2019-06-20T06:49:16.938Z,17.40
2019-06-20T06:51:43.505Z,18.10
2019-06-20T06:54:10.367Z,19.37
2019-06-20T06:56:37.456Z,19.25
2019-06-20T06:59:04.121Z,18.92
2019-06-20T07:01:30.806Z,20.88
2019-06-20T07:03:58.472Z,21.25
2019-06-20T07:06:25.155Z,20.75
2019-06-20T07:08:51.822Z,21.35
2019-06-20T07:11:18.505Z,26.60
2019-06-20T07:13:46.384Z,25.75
2019-06-20T07:16:17.089Z,27.84
2019-06-20T07:18:43.741Z,28.42
2019-06-20T07:21:10.320Z,28.87
2019-06-20T07:23:37.004Z,24.75
2019-06-20T07:26:03.700Z,28.00
2019-06-20T07:28:30.319Z,27.60
2019-06-20T07:30:56.975Z,27.15
2019-06-20T07:33:24.809Z,29.20
2019-06-20T07:35:51.479Z,26.82
2019-06-20T07:38:18.165Z,28.07
2019-06-20T07:40:44.699Z,28.25
2019-06-20T07:43:11.551Z,29.30
2019-06-20T10:49:19.906Z,31.15
2019-06-20T10:51:47.645Z,78.97
2019-06-20T10:54:14.424Z,14.35
2019-06-20T10:56:42.276Z,17.45
2019-06-20T10:59:09.658Z,23.25
2019-06-20T11:01:36.537Z,15.28
2019-06-20T11:04:03.765Z,12.13
2019-06-20T11:07:18.092Z,12.43
2019-06-20T11:20:23.933Z,13.32
2019-06-20T16:10:31.735Z,11.38
2019-06-20T16:29:31.862Z,12.30
2019-06-20T21:43:10.801Z,12.05
2019-06-20T21:47:21.829Z,11.90
2019-06-20T21:49:48.573Z,17.87
2019-06-20T21:52:15.467Z,14.95
2019-06-20T21:54:42.055Z,16.60
2019-06-20T21:57:08.842Z,16.75
2019-06-20T21:59:35.600Z,16.52
2019-06-20T22:02:02.408Z,16.48
2019-06-20T22:04:29.104Z,15.55
2019-06-20T22:07:25.848Z,18.90
2019-06-20T22:09:52.563Z,17.42
2019-06-20T22:12:19.269Z,16.32
2019-06-20T22:16:57.477Z,18.67
2019-06-20T22:19:24.586Z,16.97
2019-06-20T22:21:51.204Z,15.20
2019-06-20T22:24:17.889Z,16.75
2019-06-20T22:26:44.469Z,15.70
2019-06-20T22:29:11.150Z,15.43
2019-06-20T22:31:37.956Z,17.57
2019-06-20T22:34:05.837Z,14.15
2019-06-20T22:36:40.366Z,14.73
2019-06-20T22:39:01.264Z,12.40
2019-06-20T22:41:29.737Z,12.95
2019-06-20T22:43:56.507Z,12.05
2019-06-20T22:48:46.576Z,11.43
2019-06-20T22:52:04.504Z,13.65
2019-06-20T22:54:31.105Z,13.93
2019-06-20T23:01:25.146Z,13.80
2019-06-20T23:03:51.759Z,14.78
2019-06-20T23:06:18.463Z,14.18
2019-06-20T23:08:45.403Z,14.45
2019-06-20T23:11:12.222Z,14.20
2019-06-20T23:13:38.842Z,13.38
2019-06-20T23:16:05.451Z,11.88
2019-06-20T23:18:32.252Z,13.30
2019-06-20T23:21:04.648Z,12.03
2019-06-20T23:23:27.325Z,14.43
2019-06-20T23:45:26.330Z,13.30
2019-06-20T23:47:57.063Z,10.48
